createdAt,value
2023-02-14T00:00:35.345Z,93.87
2023-02-14T00:03:07.622Z,93.21
2023-02-14T00:05:37.306Z,94.41
2023-02-14T00:08:06.979Z,94.84
2023-02-14T00:10:36.645Z,94.52
2023-02-14T00:13:06.326Z,95.59
2023-02-14T00:15:33.377Z,96.05
2023-02-14T00:18:03.606Z,95.60
2023-02-14T00:20:37.044Z,95.56
2023-02-14T00:23:06.628Z,95.54
2023-02-14T00:25:36.870Z,95.09
2023-02-14T00:28:06.622Z,96.72
2023-02-14T00:30:37.356Z,96.53
2023-02-14T00:33:07.818Z,96.63
2023-02-14T00:35:42.828Z,97.26
2023-02-14T00:38:12.467Z,98.04
2023-02-14T00:40:42.652Z,98.00
2023-02-14T00:43:12.267Z,97.62
2023-02-14T00:45:41.896Z,98.86
2023-02-14T00:48:11.624Z,99.51
2023-02-14T00:50:45.858Z,98.84
2023-02-14T00:53:15.683Z,99.00
2023-02-14T00:55:47.857Z,98.10
2023-02-14T00:58:18.015Z,97.13
2023-02-14T01:00:47.638Z,96.75
2023-02-14T01:03:17.415Z,96.84
2023-02-14T01:05:50.354Z,96.62
2023-02-14T01:08:20.803Z,96.48
2023-02-14T01:10:50.575Z,95.70
2023-02-14T01:13:20.693Z,94.74
2023-02-14T01:15:52.717Z,94.40
2023-02-14T01:18:22.386Z,94.36
2023-02-14T01:20:54.603Z,93.82
2023-02-14T01:23:24.223Z,94.13
2023-02-14T01:25:53.851Z,93.64
2023-02-14T01:28:23.478Z,94.05
2023-02-14T01:30:53.135Z,93.89
2023-02-14T01:33:22.755Z,94.14
2023-02-14T01:35:54.937Z,94.69
2023-02-14T01:38:24.541Z,94.69
2023-02-14T01:40:54.156Z,93.49
2023-02-14T01:43:23.788Z,92.46
2023-02-14T01:45:53.560Z,91.77
2023-02-14T01:48:25.588Z,91.33
2023-02-14T01:50:59.009Z,90.92
2023-02-14T01:53:31.854Z,90.77
2023-02-14T01:56:06.796Z,90.21
2023-02-14T01:58:40.415Z,90.48
2023-02-14T02:01:07.620Z,90.48
2023-02-14T02:03:41.847Z,90.24
2023-02-14T02:06:19.291Z,90.74
2023-02-14T02:08:58.611Z,91.30
2023-02-14T02:11:28.614Z,92.57
2023-02-14T02:13:58.396Z,93.04
2023-02-14T02:16:41.947Z,93.88
2023-02-14T02:19:33.602Z,95.40
2023-02-14T02:22:23.956Z,95.46
2023-02-14T02:25:03.245Z,97.98
2023-02-14T02:27:51.266Z,96.73
2023-02-14T02:30:47.058Z,98.80
2023-02-14T02:33:58.115Z,100.00
2023-02-14T02:37:10.891Z,100.00
2023-02-14T02:39:52.992Z,100.00
2023-02-14T02:42:30.331Z,99.81
2023-02-14T02:45:09.559Z,99.38
2023-02-14T02:47:47.360Z,99.28
2023-02-14T02:50:37.983Z,98.68
2023-02-14T02:53:19.144Z,96.54
2023-02-14T02:56:07.613Z,97.74
2023-02-14T02:58:40.514Z,98.61
2023-02-14T03:01:14.386Z,98.17
2023-02-14T03:03:59.372Z,99.27
2023-02-14T03:06:29.179Z,100.00
2023-02-14T03:09:11.969Z,100.00
2023-02-14T03:11:51.778Z,100.00
2023-02-14T03:14:25.139Z,100.00
2023-02-14T03:17:06.523Z,100.00
2023-02-14T03:20:08.135Z,100.00
2023-02-14T03:22:48.505Z,100.00
2023-02-14T03:25:31.120Z,100.00
2023-02-14T03:28:09.137Z,100.00
2023-02-14T03:30:48.368Z,100.00
2023-02-14T03:33:25.443Z,100.00
2023-02-14T03:36:02.002Z,100.00
2023-02-14T03:38:38.623Z,100.00
2023-02-14T03:41:16.013Z,100.00
2023-02-14T03:43:50.248Z,100.00
2023-02-14T03:46:25.593Z,99.46
2023-02-14T03:48:59.820Z,100.00
2023-02-14T03:51:34.356Z,100.00
2023-02-14T03:54:05.970Z,100.00
2023-02-14T03:56:42.798Z,100.00
2023-02-14T03:59:17.349Z,99.66
2023-02-14T04:01:53.262Z,99.92
2023-02-14T04:04:26.305Z,99.58
2023-02-14T04:06:56.388Z,99.16
2023-02-14T04:09:26.108Z,98.64
2023-02-14T04:11:58.339Z,98.33
2023-02-14T04:14:29.579Z,98.75
2023-02-14T04:17:11.789Z,98.82
2023-02-14T04:19:41.398Z,98.50
2023-02-14T04:22:11.132Z,98.29
2023-02-14T04:24:40.761Z,98.01
2023-02-14T04:27:13.676Z,98.49
2023-02-14T04:29:45.726Z,97.66
2023-02-14T04:32:17.667Z,96.61
2023-02-14T04:34:47.709Z,97.38
2023-02-14T04:37:19.346Z,97.99
2023-02-14T04:39:49.167Z,97.57
2023-02-14T04:42:21.413Z,97.28
2023-02-14T04:44:51.065Z,97.70
2023-02-14T04:47:20.932Z,98.44
2023-02-14T04:49:50.613Z,97.87
2023-02-14T04:52:20.335Z,97.47
2023-02-14T04:54:50.451Z,97.93
2023-02-14T04:57:22.687Z,97.89
2023-02-14T04:59:52.334Z,97.98
2023-02-14T05:02:21.997Z,97.09
2023-02-14T05:04:51.742Z,97.36
2023-02-14T05:07:21.350Z,97.35
2023-02-14T05:09:50.944Z,96.77
2023-02-14T05:12:23.116Z,96.83
2023-02-14T05:14:52.721Z,97.10
2023-02-14T05:17:22.364Z,96.18
2023-02-14T05:19:51.967Z,96.17
2023-02-14T05:22:21.570Z,96.75
2023-02-14T05:24:51.450Z,96.46
2023-02-14T05:27:23.631Z,96.53
2023-02-14T05:29:53.289Z,96.13
2023-02-14T05:32:23.004Z,96.23
2023-02-14T05:34:52.674Z,95.78
2023-02-14T05:37:22.295Z,95.82
2023-02-14T05:39:51.924Z,95.18
2023-02-14T05:42:24.301Z,94.89
2023-02-14T05:44:53.932Z,94.37
2023-02-14T05:47:23.555Z,93.92
2023-02-14T05:49:53.313Z,93.73
2023-02-14T05:52:22.920Z,93.60
2023-02-14T05:54:52.702Z,93.34
2023-02-14T05:57:24.970Z,92.85
2023-02-14T05:59:54.582Z,92.93
2023-02-14T06:02:24.222Z,92.36
2023-02-14T06:04:53.970Z,91.95
2023-02-14T06:07:23.600Z,91.87
2023-02-14T06:09:53.252Z,91.95
2023-02-14T06:12:25.463Z,92.11
2023-02-14T06:14:55.096Z,93.49
2023-02-14T06:17:24.721Z,93.41
2023-02-14T06:19:54.317Z,93.82
2023-02-14T06:22:24.193Z,93.78
2023-02-14T06:24:53.841Z,94.42
2023-02-14T06:27:26.014Z,94.01
2023-02-14T06:29:55.691Z,94.00
2023-02-14T06:32:25.885Z,94.28
2023-02-14T06:34:55.620Z,94.27
2023-02-14T06:37:25.240Z,93.98
2023-02-14T06:39:54.837Z,93.97
2023-02-14T06:42:27.204Z,93.26
2023-02-14T06:44:56.805Z,92.39
2023-02-14T06:47:26.411Z,92.57
2023-02-14T06:49:56.237Z,92.87
2023-02-14T06:52:25.838Z,93.90
2023-02-14T06:54:55.525Z,93.56
2023-02-14T06:57:27.822Z,93.77
2023-02-14T06:59:57.765Z,94.94
2023-02-14T07:02:27.405Z,94.62
2023-02-14T07:04:57.165Z,95.44
2023-02-14T07:07:26.773Z,94.90
2023-02-14T07:09:59.254Z,94.42
2023-02-14T07:12:31.496Z,93.03
2023-02-14T07:15:01.196Z,93.35
2023-02-14T07:17:37.705Z,93.77
2023-02-14T07:20:11.781Z,93.60
2023-02-14T07:22:48.137Z,94.92
2023-02-14T07:25:18.960Z,95.36
2023-02-14T07:28:00.964Z,96.34
2023-02-14T07:30:36.146Z,95.76
2023-02-14T07:33:10.190Z,94.83
2023-02-14T07:35:43.422Z,94.68
2023-02-14T07:44:28.167Z,95.45
2023-02-14T07:46:57.823Z,95.49
2023-02-14T07:49:27.490Z,95.15
2023-02-14T07:51:57.126Z,94.70
2023-02-14T07:54:27.076Z,93.98
2023-02-14T07:56:57.622Z,94.13
2023-02-14T07:59:30.366Z,94.02
2023-02-14T08:02:01.009Z,94.16
2023-02-14T08:04:32.943Z,94.32
2023-02-14T08:07:06.632Z,93.98
2023-02-14T08:09:37.421Z,94.35
2023-02-14T08:12:22.843Z,94.93
2023-02-14T08:15:16.392Z,95.37
2023-02-14T08:17:46.093Z,94.64
2023-02-14T08:20:16.044Z,95.04
2023-02-14T08:22:45.688Z,95.42
2023-02-14T08:25:15.350Z,96.42
2023-02-14T08:27:44.976Z,97.66
2023-02-14T08:30:18.536Z,96.36
2023-02-14T08:32:48.493Z,98.01
2023-02-14T08:35:18.387Z,97.11
2023-02-14T08:37:48.021Z,96.87
2023-02-14T08:40:18.026Z,97.43
2023-02-14T08:42:47.644Z,97.60
2023-02-14T08:45:20.172Z,98.16
2023-02-14T08:48:03.592Z,97.65
2023-02-14T08:54:16.411Z,99.21
2023-02-14T09:04:21.694Z,100.00
2023-02-14T09:20:35.172Z,100.00
2023-02-14T09:23:07.668Z,100.00
2023-02-14T09:25:49.498Z,100.00
2023-02-14T09:28:29.450Z,100.00
2023-02-14T09:31:13.000Z,100.00
2023-02-14T09:33:50.314Z,100.00
2023-02-14T10:30:54.345Z,95.81
2023-02-14T10:34:15.277Z,96.98
2023-02-14T10:37:25.167Z,96.60
2023-02-14T10:40:56.610Z,96.57
2023-02-14T10:44:37.480Z,96.85
2023-02-14T10:53:09.013Z,97.61
2023-02-14T10:57:13.404Z,97.33
2023-02-14T11:00:59.911Z,96.44
2023-02-14T11:06:03.445Z,94.79
2023-02-14T11:17:10.103Z,88.16
2023-02-14T11:23:54.579Z,87.18
2023-02-14T11:26:28.724Z,86.87
2023-02-14T11:29:03.901Z,84.03
2023-02-14T11:31:36.781Z,82.72
2023-02-14T11:34:09.454Z,82.47
2023-02-14T11:36:44.123Z,82.34
2023-02-14T11:39:25.825Z,82.62
2023-02-14T11:41:58.205Z,81.20
2023-02-14T11:44:33.086Z,80.80
2023-02-14T11:47:22.751Z,79.97
2023-02-14T11:50:01.157Z,80.26
2023-02-14T11:52:32.747Z,80.56
2023-02-14T11:55:04.424Z,78.74
2023-02-14T11:57:38.472Z,78.91
2023-02-14T12:00:19.552Z,79.15
2023-02-14T12:02:51.684Z,79.12
2023-02-14T12:05:24.131Z,79.72
2023-02-14T12:07:56.865Z,78.69
2023-02-14T12:10:31.866Z,77.87
2023-02-14T12:13:03.635Z,78.69
2023-02-14T12:15:41.230Z,78.25
2023-02-14T12:18:39.694Z,77.03
2023-02-14T12:21:24.141Z,77.53
2023-02-14T12:24:01.460Z,77.19
2023-02-14T12:26:35.766Z,77.45
2023-02-14T12:29:14.284Z,77.78
2023-02-14T12:31:49.342Z,76.55
2023-02-14T12:34:21.570Z,76.00
2023-02-14T12:37:19.829Z,75.82
2023-02-14T12:40:07.800Z,75.66
2023-02-14T12:42:49.730Z,75.00
2023-02-14T12:45:28.406Z,75.58
2023-02-14T12:48:16.299Z,75.35
2023-02-14T12:50:53.351Z,75.22
2023-02-14T12:53:40.632Z,74.10
2023-02-14T12:56:19.310Z,74.46
2023-02-14T12:59:01.590Z,73.49
2023-02-14T13:01:47.978Z,73.78
2023-02-14T13:04:56.029Z,72.83
2023-02-14T13:07:38.379Z,73.96
2023-02-14T13:10:18.148Z,72.31
2023-02-14T13:12:54.358Z,73.61
2023-02-14T13:15:29.955Z,73.50
2023-02-14T13:18:07.367Z,72.88
2023-02-14T13:20:46.035Z,73.29
2023-02-14T13:23:20.200Z,73.19
2023-02-14T13:25:54.590Z,72.15
2023-02-14T13:28:25.687Z,72.43
2023-02-14T13:30:57.914Z,73.31
2023-02-14T13:33:34.984Z,72.29
2023-02-14T13:36:11.633Z,72.13
2023-02-14T13:38:46.340Z,71.18
2023-02-14T13:41:18.129Z,71.52
2023-02-14T13:43:49.182Z,71.18
2023-02-14T13:46:20.755Z,70.69
2023-02-14T13:49:02.237Z,70.97
2023-02-14T13:51:51.244Z,69.63
2023-02-14T13:54:31.266Z,70.10
2023-02-14T13:57:01.513Z,70.54
2023-02-14T13:59:34.218Z,70.22
2023-02-14T14:02:35.293Z,70.36
2023-02-14T14:05:40.600Z,69.65
2023-02-14T14:08:41.465Z,70.08
2023-02-14T14:11:16.351Z,70.59
2023-02-14T14:14:07.470Z,69.87
2023-02-14T14:16:38.073Z,69.28
2023-02-14T14:19:33.270Z,68.87
2023-02-14T14:22:04.807Z,70.01
2023-02-14T14:24:37.883Z,69.42
2023-02-14T14:27:15.813Z,69.69
2023-02-14T14:29:50.137Z,69.40
2023-02-14T14:32:22.370Z,68.49
2023-02-14T14:34:53.518Z,69.00
2023-02-14T14:37:25.148Z,69.07
2023-02-14T14:39:59.734Z,68.34
2023-02-14T14:42:32.598Z,67.73
2023-02-14T14:45:05.668Z,67.33
2023-02-14T14:47:43.074Z,66.51
2023-02-14T14:50:18.978Z,67.41
2023-02-14T14:52:51.481Z,67.88
2023-02-14T14:55:26.895Z,68.07
2023-02-14T14:57:59.723Z,67.02
2023-02-14T15:00:31.169Z,66.32
2023-02-14T15:03:04.351Z,66.09
2023-02-14T15:05:37.582Z,66.90
2023-02-14T15:08:24.093Z,66.73
2023-02-14T15:11:02.329Z,67.82
2023-02-14T15:13:49.717Z,67.55
2023-02-14T15:16:21.981Z,67.21
2023-02-14T15:18:53.860Z,67.83
2023-02-14T15:21:23.690Z,67.06
2023-02-14T15:23:54.808Z,67.16
2023-02-14T15:26:32.387Z,67.32
2023-02-14T15:29:04.125Z,67.84
2023-02-14T15:31:37.429Z,68.02
2023-02-14T15:34:08.643Z,68.64
2023-02-14T15:36:39.481Z,69.37
2023-02-14T15:39:12.332Z,69.66
2023-02-14T15:41:48.865Z,69.82
2023-02-14T15:44:22.915Z,70.38
2023-02-14T15:46:58.634Z,70.60
2023-02-14T15:49:35.709Z,70.76
2023-02-14T15:52:07.780Z,70.75
2023-02-14T15:54:41.701Z,70.31
2023-02-14T15:57:23.748Z,69.73
2023-02-14T15:59:54.101Z,70.90
2023-02-14T16:02:32.563Z,71.48
2023-02-14T16:05:07.821Z,72.41
2023-02-14T16:07:37.643Z,73.15
2023-02-14T16:10:24.083Z,73.10
2023-02-14T16:13:26.606Z,73.46
2023-02-14T16:16:17.461Z,74.34
2023-02-14T16:19:03.105Z,74.74
2023-02-14T16:25:47.128Z,75.37
2023-02-14T16:35:28.529Z,76.11
2023-02-14T16:38:43.392Z,75.71
2023-02-14T16:41:24.178Z,75.39
2023-02-14T16:48:40.456Z,75.89
2023-02-14T16:55:14.783Z,76.39
2023-02-14T16:58:31.594Z,76.57
2023-02-14T17:01:47.345Z,77.70
2023-02-14T17:05:03.168Z,78.19
2023-02-14T17:07:52.023Z,79.06
2023-02-14T17:10:32.592Z,79.33
2023-02-14T17:13:29.765Z,79.42
2023-02-14T17:16:20.823Z,79.98
2023-02-14T17:19:23.162Z,80.08
2023-02-14T17:22:07.323Z,80.20
2023-02-14T17:24:46.419Z,80.05
2023-02-14T17:27:26.869Z,80.41
2023-02-14T17:30:03.469Z,80.17
2023-02-14T17:32:37.971Z,80.37
2023-02-14T17:35:20.243Z,80.94
2023-02-14T17:38:00.774Z,81.00
2023-02-14T17:40:36.341Z,81.35
2023-02-14T17:43:17.854Z,81.46
2023-02-14T17:45:57.280Z,81.67
2023-02-14T17:48:36.045Z,81.78
2023-02-14T17:51:07.893Z,81.85
2023-02-14T17:53:46.290Z,81.84
2023-02-14T17:56:22.432Z,81.89
2023-02-14T17:58:59.918Z,82.32
2023-02-14T18:01:36.660Z,82.28
2023-02-14T18:04:12.319Z,82.26
2023-02-14T18:07:01.563Z,82.18
2023-02-14T18:09:38.024Z,82.70
2023-02-14T18:12:14.918Z,81.83
2023-02-14T18:15:09.477Z,81.71
2023-02-14T18:17:51.070Z,82.87
2023-02-14T18:20:37.017Z,82.88
2023-02-14T18:23:21.537Z,82.88
2023-02-14T18:25:59.849Z,82.79
2023-02-14T18:28:41.040Z,80.79
2023-02-14T18:31:13.765Z,81.46
2023-02-14T18:33:55.422Z,81.85
2023-02-14T18:36:27.828Z,83.27
2023-02-14T18:38:58.654Z,84.01
2023-02-14T18:41:32.269Z,83.97
2023-02-14T18:44:03.091Z,84.01
2023-02-14T18:46:38.280Z,83.96
2023-02-14T18:49:09.726Z,85.15
2023-02-14T18:51:41.437Z,85.56
2023-02-14T18:54:11.528Z,85.43
2023-02-14T18:56:44.163Z,84.91
2023-02-14T18:59:18.254Z,85.08
2023-02-14T19:01:48.668Z,85.22
2023-02-14T19:04:18.749Z,84.45
2023-02-14T19:06:49.548Z,84.11
2023-02-14T19:09:20.076Z,85.85
2023-02-14T19:11:52.821Z,86.22
2023-02-14T19:14:22.760Z,86.75
2023-02-14T19:16:53.653Z,87.44
2023-02-14T19:19:24.348Z,87.24
2023-02-14T19:22:01.147Z,87.10
2023-02-14T19:24:31.669Z,87.12
2023-02-14T19:27:06.876Z,87.09
2023-02-14T19:29:38.525Z,87.05
2023-02-14T19:32:09.353Z,87.48
2023-02-14T19:34:42.749Z,87.43
2023-02-14T19:37:22.723Z,87.02
2023-02-14T19:39:53.077Z,87.23
2023-02-14T19:42:26.256Z,87.00
2023-02-14T19:44:58.223Z,87.22
2023-02-14T19:47:46.226Z,87.10
2023-02-14T19:50:21.929Z,87.02
2023-02-14T20:01:28.746Z,89.18
2023-02-14T20:04:57.011Z,88.80
2023-02-14T20:11:50.704Z,88.20
2023-02-14T20:15:31.287Z,88.33
2023-02-14T20:20:44.694Z,88.61
2023-02-14T20:35:03.165Z,88.57
2023-02-14T20:38:34.247Z,88.18
2023-02-14T20:41:54.233Z,89.94
2023-02-14T20:45:22.298Z,89.59
2023-02-14T21:06:18.129Z,91.34
2023-02-14T21:09:04.881Z,93.28
2023-02-14T21:17:17.096Z,93.70
